Snow/Ice From: 16-12-2017 16:00 Until: 17-12-2017 16:00 warning for: Snow/Ice Level: Yellow info button

Although rather usual in this region, locally or potentially dangerous phenomena are expected. (such as local winds, summer thunderstorms, rising streams or high waves) Be aware and pay attention to the latest weather updates, especially if you carry out activities exposed to weather or close to a stream or shoreline. 


Meteo18 Weather Cam more information Meteo18 Weather Cam


Thunder radar more information blitzortung!


warning for Snow/Ice more information rain snow radar


Visit our other weather sites:

Template documentation
and downloads

And another site



Weather Underground History page Text

Daily Summary for May 9, 2017 Units:  Both    English   Metric
« Previous Day
Next Day »
Daily Weekly Monthly Yearly Custom
  High: Low: Average:
Temperature: 60.6 °F /  15.9 °C 47.1 °F /  8.4 °C 52.5 °F /  11.4 °C
Dew Point: 45.7 °F /  7.6 °C 42.1 °F /  5.6 °C 44.2 °F /  6.8 °C
Humidity: 93 % 54 % 75 %
Wind Speed: 15 mph /  24.1 km/h - 5.5 mph /  8.8 km/h
Wind Gust: 19 mph /  30.6 km/h - -
Wind:- - ENE
Pressure: 30.2 in /  1022.9 hPa 29.9 in /  1012.1 hPa -
Precipitation: 0 in /  0.0 mm    
Historical Graphs
 
 
Tabular Data for May 9, 2017
Time Temperature Dew Point Pressure Wind Wind Speed Wind Gust Humidity Rainfall Rate (Hourly)
00:02 48.4 °F /  9.1 °C 43.5 °F /  6.4 °C 30.2 in /  1022.9 hPa NNW 1 mph /  1.6 km/h 4 mph /  6.4 km/h 83 % 0 in /  0.0 mm
00:07 48.4 °F /  9.1 °C 43.7 °F /  6.5 °C 30.2 in /  1022.9 hPa NNW 1 mph /  1.6 km/h 4 mph /  6.4 km/h 84 % 0 in /  0.0 mm
00:12 48.4 °F /  9.1 °C 43.7 °F /  6.5 °C 30.2 in /  1022.9 hPa Calm   4 mph /  6.4 km/h 84 % 0 in /  0.0 mm
00:17 48.4 °F /  9.1 °C 43.7 °F /  6.5 °C 30.2 in /  1022.9 hPa Calm   4 mph /  6.4 km/h 84 % 0 in /  0.0 mm
00:22 48.4 °F /  9.1 °C 43.7 °F /  6.5 °C 30.2 in /  1022.6 hPa North 4 mph /  6.4 km/h 4 mph /  6.4 km/h 84 % 0 in /  0.0 mm
00:32 48.4 °F /  9.1 °C 43.7 °F /  6.5 °C 30.2 in /  1022.6 hPa Calm   6 mph /  9.7 km/h 84 % 0 in /  0.0 mm
00:37 48.4 °F /  9.1 °C 43.7 °F /  6.5 °C 30.2 in /  1022.6 hPa Calm   4 mph /  6.4 km/h 84 % 0 in /  0.0 mm
00:47 48.4 °F /  9.1 °C 44.1 °F /  6.7 °C 30.2 in /  1022.6 hPa Calm   3 mph /  4.8 km/h 85 % 0 in /  0.0 mm
00:52 48.4 °F /  9.1 °C 44.1 °F /  6.7 °C 30.2 in /  1022.6 hPa Calm   2 mph /  3.2 km/h 85 % 0 in /  0.0 mm
00:57 48.2 °F /  9.0 °C 43.9 °F /  6.6 °C 30.2 in /  1022.6 hPa Calm   2 mph /  3.2 km/h 85 % 0 in /  0.0 mm
01:02 48.2 °F /  9.0 °C 44.2 °F /  6.8 °C 30.2 in /  1022.6 hPa Calm     86 % 0 in /  0.0 mm
01:07 48 °F /  8.9 °C 44.1 °F /  6.7 °C 30.2 in /  1022.2 hPa Calm     86 % 0 in /  0.0 mm
01:12 48 °F /  8.9 °C 44.1 °F /  6.7 °C 30.2 in /  1022.2 hPa Calm     86 % 0 in /  0.0 mm
01:17 48 °F /  8.9 °C 44.4 °F /  6.9 °C 30.2 in /  1022.2 hPa Calm     87 % 0 in /  0.0 mm
01:22 48 °F /  8.9 °C 44.4 °F /  6.9 °C 30.2 in /  1022.2 hPa Calm     87 % 0 in /  0.0 mm
01:32 47.8 °F /  8.8 °C 44.2 °F /  6.8 °C 30.2 in /  1022.2 hPa Calm     87 % 0 in /  0.0 mm
01:37 48 °F /  8.9 °C 44.4 °F /  6.9 °C 30.2 in /  1022.2 hPa Calm     87 % 0 in /  0.0 mm
01:42 48 °F /  8.9 °C 44.6 °F /  7.0 °C 30.2 in /  1022.2 hPa Calm     88 % 0 in /  0.0 mm
01:47 47.8 °F /  8.8 °C 44.4 °F /  6.9 °C 30.2 in /  1022.2 hPa Calm     88 % 0 in /  0.0 mm
01:52 47.8 °F /  8.8 °C 44.4 °F /  6.9 °C 30.2 in /  1021.9 hPa Calm   1 mph /  1.6 km/h 88 % 0 in /  0.0 mm
01:57 47.7 °F /  8.7 °C 44.2 °F /  6.8 °C 30.2 in /  1021.9 hPa Calm   2 mph /  3.2 km/h 88 % 0 in /  0.0 mm
02:02 47.7 °F /  8.7 °C 44.6 °F /  7.0 °C 30.2 in /  1021.9 hPa Calm   2 mph /  3.2 km/h 89 % 0 in /  0.0 mm
02:12 47.7 °F /  8.7 °C 44.6 °F /  7.0 °C 30.2 in /  1021.9 hPa North 2 mph /  3.2 km/h 4 mph /  6.4 km/h 89 % 0 in /  0.0 mm
02:17 47.7 °F /  8.7 °C 45 °F /  7.2 °C 30.2 in /  1021.6 hPa NNE 2 mph /  3.2 km/h 4 mph /  6.4 km/h 90 % 0 in /  0.0 mm
02:22 47.7 °F /  8.7 °C 45 °F /  7.2 °C 30.2 in /  1021.6 hPa North 5 mph /  8.0 km/h 5 mph /  8.0 km/h 90 % 0 in /  0.0 mm
02:27 47.7 °F /  8.7 °C 45 °F /  7.2 °C 30.2 in /  1021.6 hPa NE 1 mph /  1.6 km/h 7 mph /  11.3 km/h 90 % 0 in /  0.0 mm
02:32 47.7 °F /  8.7 °C 45 °F /  7.2 °C 30.2 in /  1021.6 hPa NW 2 mph /  3.2 km/h 7 mph /  11.3 km/h 90 % 0 in /  0.0 mm
02:37 47.7 °F /  8.7 °C 45.1 °F /  7.3 °C 30.2 in /  1021.6 hPa North 2 mph /  3.2 km/h 7 mph /  11.3 km/h 91 % 0 in /  0.0 mm
02:42 47.7 °F /  8.7 °C 45.1 °F /  7.3 °C 30.2 in /  1021.6 hPa NNW 1 mph /  1.6 km/h 7 mph /  11.3 km/h 91 % 0 in /  0.0 mm
02:47 47.5 °F /  8.6 °C 45 °F /  7.2 °C 30.2 in /  1021.6 hPa NE 3 mph /  4.8 km/h 6 mph /  9.7 km/h 91 % 0 in /  0.0 mm
02:52 47.5 °F /  8.6 °C 45.3 °F /  7.4 °C 30.2 in /  1021.6 hPa NE 1 mph /  1.6 km/h 5 mph /  8.0 km/h 92 % 0 in /  0.0 mm
02:57 47.5 °F /  8.6 °C 45.3 °F /  7.4 °C 30.2 in /  1021.6 hPa NE 3 mph /  4.8 km/h 5 mph /  8.0 km/h 92 % 0 in /  0.0 mm
03:02 47.5 °F /  8.6 °C 45.3 °F /  7.4 °C 30.2 in /  1021.2 hPa NNE 2 mph /  3.2 km/h 5 mph /  8.0 km/h 92 % 0 in /  0.0 mm
03:07 47.3 °F /  8.5 °C 45.1 °F /  7.3 °C 30.2 in /  1021.2 hPa NNE 3 mph /  4.8 km/h 5 mph /  8.0 km/h 92 % 0 in /  0.0 mm
03:12 47.3 °F /  8.5 °C 45.1 °F /  7.3 °C 30.2 in /  1021.2 hPa NE 2 mph /  3.2 km/h 5 mph /  8.0 km/h 92 % 0 in /  0.0 mm
03:17 47.3 °F /  8.5 °C 45.1 °F /  7.3 °C 30.2 in /  1021.2 hPa NNW 1 mph /  1.6 km/h 4 mph /  6.4 km/h 92 % 0 in /  0.0 mm
03:22 47.1 °F /  8.4 °C 45 °F /  7.2 °C 30.2 in /  1021.2 hPa NNE 1 mph /  1.6 km/h 4 mph /  6.4 km/h 92 % 0 in /  0.0 mm
03:27 47.1 °F /  8.4 °C 45.1 °F /  7.3 °C 30.2 in /  1021.2 hPa Calm   5 mph /  8.0 km/h 93 % 0 in /  0.0 mm
03:32 47.1 °F /  8.4 °C 45.1 °F /  7.3 °C 30.2 in /  1021.2 hPa NE 3 mph /  4.8 km/h 5 mph /  8.0 km/h 93 % 0 in /  0.0 mm
03:37 47.1 °F /  8.4 °C 45.1 °F /  7.3 °C 30.2 in /  1021.2 hPa NNE 5 mph /  8.0 km/h 8 mph /  12.9 km/h 93 % 0 in /  0.0 mm
03:42 47.1 °F /  8.4 °C 45.1 °F /  7.3 °C 30.2 in /  1020.9 hPa NNE 5 mph /  8.0 km/h 8 mph /  12.9 km/h 93 % 0 in /  0.0 mm
03:52 47.1 °F /  8.4 °C 45.1 °F /  7.3 °C 30.2 in /  1020.9 hPa NNW 2 mph /  3.2 km/h 9 mph /  14.5 km/h 93 % 0 in /  0.0 mm
03:57 47.1 °F /  8.4 °C 45.1 °F /  7.3 °C 30.2 in /  1020.9 hPa ENE 4 mph /  6.4 km/h 9 mph /  14.5 km/h 93 % 0 in /  0.0 mm
04:02 47.1 °F /  8.4 °C 45.1 °F /  7.3 °C 30.2 in /  1020.9 hPa NE 6 mph /  9.7 km/h 9 mph /  14.5 km/h 93 % 0 in /  0.0 mm
04:07 47.1 °F /  8.4 °C 45.1 °F /  7.3 °C 30.2 in /  1020.9 hPa NNE 4 mph /  6.4 km/h 9 mph /  14.5 km/h 93 % 0 in /  0.0 mm
04:12 47.1 °F /  8.4 °C 45.1 °F /  7.3 °C 30.2 in /  1020.9 hPa NE 5 mph /  8.0 km/h 9 mph /  14.5 km/h 93 % 0 in /  0.0 mm
04:17 47.1 °F /  8.4 °C 45 °F /  7.2 °C 30.2 in /  1020.9 hPa NNE 3 mph /  4.8 km/h 8 mph /  12.9 km/h 92 % 0 in /  0.0 mm
04:22 47.3 °F /  8.5 °C 45.1 °F /  7.3 °C 30.2 in /  1020.9 hPa ENE 2 mph /  3.2 km/h 9 mph /  14.5 km/h 92 % 0 in /  0.0 mm
04:27 47.3 °F /  8.5 °C 45.1 °F /  7.3 °C 30.1 in /  1020.5 hPa NNE 4 mph /  6.4 km/h 9 mph /  14.5 km/h 92 % 0 in /  0.0 mm
04:32 47.3 °F /  8.5 °C 45.1 °F /  7.3 °C 30.1 in /  1020.5 hPa NE 3 mph /  4.8 km/h 9 mph /  14.5 km/h 92 % 0 in /  0.0 mm
04:37 47.3 °F /  8.5 °C 45.1 °F /  7.3 °C 30.2 in /  1020.9 hPa North 3 mph /  4.8 km/h 9 mph /  14.5 km/h 92 % 0 in /  0.0 mm
04:42 47.3 °F /  8.5 °C 45.1 °F /  7.3 °C 30.2 in /  1020.9 hPa NNW 3 mph /  4.8 km/h 8 mph /  12.9 km/h 92 % 0 in /  0.0 mm
04:47 47.3 °F /  8.5 °C 45.1 °F /  7.3 °C 30.2 in /  1020.9 hPa NNW 2 mph /  3.2 km/h 9 mph /  14.5 km/h 92 % 0 in /  0.0 mm
04:52 47.3 °F /  8.5 °C 45.1 °F /  7.3 °C 30.1 in /  1020.5 hPa North 3 mph /  4.8 km/h 9 mph /  14.5 km/h 92 % 0 in /  0.0 mm
04:57 47.3 °F /  8.5 °C 44.8 °F /  7.1 °C 30.1 in /  1020.5 hPa NE 3 mph /  4.8 km/h 9 mph /  14.5 km/h 91 % 0 in /  0.0 mm
05:02 47.3 °F /  8.5 °C 44.8 °F /  7.1 °C 30.1 in /  1020.5 hPa NNW 3 mph /  4.8 km/h 9 mph /  14.5 km/h 91 % 0 in /  0.0 mm
05:07 47.3 °F /  8.5 °C 44.8 °F /  7.1 °C 30.1 in /  1020.5 hPa East 2 mph /  3.2 km/h 9 mph /  14.5 km/h 91 % 0 in /  0.0 mm
05:12 47.3 °F /  8.5 °C 44.8 °F /  7.1 °C 30.1 in /  1020.5 hPa NE 2 mph /  3.2 km/h 9 mph /  14.5 km/h 91 % 0 in /  0.0 mm
05:17 47.3 °F /  8.5 °C 44.8 °F /  7.1 °C 30.1 in /  1020.5 hPa NNE 6 mph /  9.7 km/h 6 mph /  9.7 km/h 91 % 0 in /  0.0 mm
05:22 47.3 °F /  8.5 °C 44.8 °F /  7.1 °C 30.1 in /  1020.5 hPa NNE 2 mph /  3.2 km/h 6 mph /  9.7 km/h 91 % 0 in /  0.0 mm
05:32 47.3 °F /  8.5 °C 44.8 °F /  7.1 °C 30.1 in /  1020.5 hPa NE 5 mph /  8.0 km/h 8 mph /  12.9 km/h 91 % 0 in /  0.0 mm
05:42 47.3 °F /  8.5 °C 45.1 °F /  7.3 °C 30.1 in /  1020.2 hPa NNE 4 mph /  6.4 km/h 8 mph /  12.9 km/h 92 % 0 in /  0.0 mm
05:47 47.3 °F /  8.5 °C 45.1 °F /  7.3 °C 30.1 in /  1020.2 hPa NNE 6 mph /  9.7 km/h 11 mph /  17.7 km/h 92 % 0 in /  0.0 mm
05:52 47.3 °F /  8.5 °C 45.1 °F /  7.3 °C 30.1 in /  1020.2 hPa NNE 2 mph /  3.2 km/h 11 mph /  17.7 km/h 92 % 0 in /  0.0 mm
05:57 47.3 °F /  8.5 °C 45.1 °F /  7.3 °C 30.1 in /  1020.5 hPa NW 2 mph /  3.2 km/h 10 mph /  16.1 km/h 92 % 0 in /  0.0 mm
06:02 47.3 °F /  8.5 °C 45.1 °F /  7.3 °C 30.1 in /  1020.5 hPa NE 5 mph /  8.0 km/h 10 mph /  16.1 km/h 92 % 0 in /  0.0 mm
06:07 47.3 °F /  8.5 °C 45.1 °F /  7.3 °C 30.1 in /  1020.2 hPa NE 1 mph /  1.6 km/h 8 mph /  12.9 km/h 92 % 0 in /  0.0 mm
06:12 47.3 °F /  8.5 °C 45.1 °F /  7.3 °C 30.1 in /  1020.2 hPa Calm   8 mph /  12.9 km/h 92 % 0 in /  0.0 mm
06:17 47.1 °F /  8.4 °C 45 °F /  7.2 °C 30.1 in /  1020.2 hPa NNE 2 mph /  3.2 km/h 8 mph /  12.9 km/h 92 % 0 in /  0.0 mm
06:22 47.1 °F /  8.4 °C 45 °F /  7.2 °C 30.1 in /  1020.2 hPa NE 2 mph /  3.2 km/h 7 mph /  11.3 km/h 92 % 0 in /  0.0 mm
06:32 47.1 °F /  8.4 °C 45.1 °F /  7.3 °C 30.1 in /  1020.2 hPa Calm   6 mph /  9.7 km/h 93 % 0 in /  0.0 mm
06:37 47.1 °F /  8.4 °C 45.1 °F /  7.3 °C 30.1 in /  1020.2 hPa Calm   5 mph /  8.0 km/h 93 % 0 in /  0.0 mm
06:42 47.1 °F /  8.4 °C 45.1 °F /  7.3 °C 30.1 in /  1020.2 hPa NE 1 mph /  1.6 km/h 5 mph /  8.0 km/h 93 % 0 in /  0.0 mm
06:47 47.1 °F /  8.4 °C 45.1 °F /  7.3 °C 30.1 in /  1020.2 hPa NE 3 mph /  4.8 km/h 3 mph /  4.8 km/h 93 % 0 in /  0.0 mm
06:52 47.1 °F /  8.4 °C 45.1 °F /  7.3 °C 30.1 in /  1020.2 hPa NE 2 mph /  3.2 km/h 5 mph /  8.0 km/h 93 % 0 in /  0.0 mm
07:02 47.1 °F /  8.4 °C 45.1 °F /  7.3 °C 30.1 in /  1020.2 hPa NE 2 mph /  3.2 km/h 5 mph /  8.0 km/h 93 % 0 in /  0.0 mm
07:12 47.1 °F /  8.4 °C 45.1 °F /  7.3 °C 30.1 in /  1020.2 hPa NNE 3 mph /  4.8 km/h 5 mph /  8.0 km/h 93 % 0 in /  0.0 mm
07:17 47.3 °F /  8.5 °C 45.3 °F /  7.4 °C 30.1 in /  1020.2 hPa NNE 2 mph /  3.2 km/h 5 mph /  8.0 km/h 93 % 0 in /  0.0 mm
07:22 47.3 °F /  8.5 °C 45.3 °F /  7.4 °C 30.1 in /  1020.2 hPa NNE 2 mph /  3.2 km/h 5 mph /  8.0 km/h 93 % 0 in /  0.0 mm
07:27 47.3 °F /  8.5 °C 45.3 °F /  7.4 °C 30.1 in /  1020.2 hPa North 5 mph /  8.0 km/h 6 mph /  9.7 km/h 93 % 0 in /  0.0 mm
07:32 47.5 °F /  8.6 °C 45.5 °F /  7.5 °C 30.1 in /  1020.2 hPa NE 2 mph /  3.2 km/h 6 mph /  9.7 km/h 93 % 0 in /  0.0 mm
07:37 47.5 °F /  8.6 °C 45.5 °F /  7.5 °C 30.1 in /  1020.2 hPa NE 4 mph /  6.4 km/h 6 mph /  9.7 km/h 93 % 0 in /  0.0 mm
07:42 47.5 °F /  8.6 °C 45.5 °F /  7.5 °C 30.1 in /  1020.2 hPa NE 3 mph /  4.8 km/h 6 mph /  9.7 km/h 93 % 0 in /  0.0 mm
07:47 47.5 °F /  8.6 °C 45.5 °F /  7.5 °C 30.1 in /  1020.2 hPa NNE 2 mph /  3.2 km/h 7 mph /  11.3 km/h 93 % 0 in /  0.0 mm
07:57 47.7 °F /  8.7 °C 45.7 °F /  7.6 °C 30.1 in /  1020.2 hPa North 1 mph /  1.6 km/h 9 mph /  14.5 km/h 93 % 0 in /  0.0 mm
08:02 47.7 °F /  8.7 °C 45.7 °F /  7.6 °C 30.1 in /  1019.9 hPa NE 6 mph /  9.7 km/h 9 mph /  14.5 km/h 93 % 0 in /  0.0 mm
08:07 47.7 °F /  8.7 °C 45.7 °F /  7.6 °C 30.1 in /  1019.9 hPa NE 3 mph /  4.8 km/h 9 mph /  14.5 km/h 93 % 0 in /  0.0 mm
08:12 47.7 °F /  8.7 °C 45.7 °F /  7.6 °C 30.1 in /  1020.2 hPa NE 3 mph /  4.8 km/h 9 mph /  14.5 km/h 93 % 0 in /  0.0 mm
08:17 47.5 °F /  8.6 °C 45.3 °F /  7.4 °C 30.1 in /  1020.2 hPa NNE 4 mph /  6.4 km/h 11 mph /  17.7 km/h 92 % 0 in /  0.0 mm
08:22 47.3 °F /  8.5 °C 45.1 °F /  7.3 °C 30.1 in /  1019.9 hPa NNE 5 mph /  8.0 km/h 11 mph /  17.7 km/h 92 % 0 in /  0.0 mm
08:27 47.5 °F /  8.6 °C 45.3 °F /  7.4 °C 30.1 in /  1019.9 hPa NE 3 mph /  4.8 km/h 12 mph /  19.3 km/h 92 % 0 in /  0.0 mm
08:32 47.7 °F /  8.7 °C 45.5 °F /  7.5 °C 30.1 in /  1019.9 hPa NNE 5 mph /  8.0 km/h 12 mph /  19.3 km/h 92 % 0 in /  0.0 mm
08:37 47.8 °F /  8.8 °C 45.3 °F /  7.4 °C 30.1 in /  1019.9 hPa NNE 3 mph /  4.8 km/h 9 mph /  14.5 km/h 91 % 0 in /  0.0 mm
08:42 48.2 °F /  9.0 °C 45.7 °F /  7.6 °C 30.1 in /  1020.2 hPa NNE 5 mph /  8.0 km/h 9 mph /  14.5 km/h 91 % 0 in /  0.0 mm
08:47 48.4 °F /  9.1 °C 45.5 °F /  7.5 °C 30.1 in /  1019.9 hPa NNE 7 mph /  11.3 km/h 12 mph /  19.3 km/h 90 % 0 in /  0.0 mm
08:52 48.7 °F /  9.3 °C 45.7 °F /  7.6 °C 30.1 in /  1019.9 hPa East 5 mph /  8.0 km/h 12 mph /  19.3 km/h 89 % 0 in /  0.0 mm
08:57 48.9 °F /  9.4 °C 45.5 °F /  7.5 °C 30.1 in /  1019.9 hPa NNE 4 mph /  6.4 km/h 13 mph /  20.9 km/h 88 % 0 in /  0.0 mm
09:02 49.3 °F /  9.6 °C 45.3 °F /  7.4 °C 30.1 in /  1019.9 hPa NE 4 mph /  6.4 km/h 13 mph /  20.9 km/h 86 % 0 in /  0.0 mm
09:07 49.5 °F /  9.7 °C 44.8 °F /  7.1 °C 30.1 in /  1019.9 hPa ENE 6 mph /  9.7 km/h 14 mph /  22.5 km/h 84 % 0 in /  0.0 mm
09:12 49.5 °F /  9.7 °C 45.1 °F /  7.3 °C 30.1 in /  1019.9 hPa NE 7 mph /  11.3 km/h 14 mph /  22.5 km/h 85 % 0 in /  0.0 mm
09:17 49.8 °F /  9.9 °C 45.1 °F /  7.3 °C 30.1 in /  1019.9 hPa NE 6 mph /  9.7 km/h 14 mph /  22.5 km/h 84 % 0 in /  0.0 mm
09:22 49.6 °F /  9.8 °C 45 °F /  7.2 °C 30.1 in /  1019.9 hPa NE 4 mph /  6.4 km/h 14 mph /  22.5 km/h 84 % 0 in /  0.0 mm
09:32 49.1 °F /  9.5 °C 44.4 °F /  6.9 °C 30.1 in /  1019.9 hPa NNE 12 mph /  19.3 km/h 13 mph /  20.9 km/h 84 % 0 in /  0.0 mm
09:37 48.9 °F /  9.4 °C 44.2 °F /  6.8 °C 30.1 in /  1019.9 hPa ENE 7 mph /  11.3 km/h 13 mph /  20.9 km/h 84 % 0 in /  0.0 mm
09:42 49.3 °F /  9.6 °C 44.6 °F /  7.0 °C 30.1 in /  1019.9 hPa NE 8 mph /  12.9 km/h 13 mph /  20.9 km/h 84 % 0 in /  0.0 mm
09:47 50.5 °F /  10.3 °C 45 °F /  7.2 °C 30.1 in /  1019.9 hPa ENE 11 mph /  17.7 km/h 16 mph /  25.7 km/h 81 % 0 in /  0.0 mm
09:52 51.3 °F /  10.7 °C 45.7 °F /  7.6 °C 30.1 in /  1019.9 hPa East 4 mph /  6.4 km/h 16 mph /  25.7 km/h 81 % 0 in /  0.0 mm
09:57 51.1 °F /  10.6 °C 44.8 °F /  7.1 °C 30.1 in /  1019.9 hPa NE 12 mph /  19.3 km/h 17 mph /  27.4 km/h 79 % 0 in /  0.0 mm
10:07 51.1 °F /  10.6 °C 44.8 °F /  7.1 °C 30.1 in /  1019.5 hPa NE 9 mph /  14.5 km/h 17 mph /  27.4 km/h 79 % 0 in /  0.0 mm
10:12 51.4 °F /  10.8 °C 45.1 °F /  7.3 °C 30.1 in /  1019.5 hPa NE 7 mph /  11.3 km/h 17 mph /  27.4 km/h 79 % 0 in /  0.0 mm
10:17 51.1 °F /  10.6 °C 44.8 °F /  7.1 °C 30.1 in /  1019.5 hPa NE 5 mph /  8.0 km/h 16 mph /  25.7 km/h 79 % 0 in /  0.0 mm
10:22 50.7 °F /  10.4 °C 44.8 °F /  7.1 °C 30.1 in /  1019.5 hPa NE 10 mph /  16.1 km/h 16 mph /  25.7 km/h 80 % 0 in /  0.0 mm
10:27 50.4 °F /  10.2 °C 44.4 °F /  6.9 °C 30.1 in /  1019.5 hPa NE 7 mph /  11.3 km/h 12 mph /  19.3 km/h 80 % 0 in /  0.0 mm
10:32 50.5 °F /  10.3 °C 45.3 °F /  7.4 °C 30.1 in /  1019.5 hPa ENE 3 mph /  4.8 km/h 12 mph /  19.3 km/h 82 % 0 in /  0.0 mm
10:42 51.3 °F /  10.7 °C 43.9 °F /  6.6 °C 30.1 in /  1019.5 hPa NNE 10 mph /  16.1 km/h 12 mph /  19.3 km/h 76 % 0 in /  0.0 mm
10:52 51.6 °F /  10.9 °C 44.2 °F /  6.8 °C 30.1 in /  1019.5 hPa NNE 11 mph /  17.7 km/h 16 mph /  25.7 km/h 76 % 0 in /  0.0 mm
10:57 52.2 °F /  11.2 °C 44.4 °F /  6.9 °C 30.1 in /  1019.2 hPa East 11 mph /  17.7 km/h 16 mph /  25.7 km/h 75 % 0 in /  0.0 mm
11:02 52.5 °F /  11.4 °C 44.4 °F /  6.9 °C 30.1 in /  1019.2 hPa NE 6 mph /  9.7 km/h 16 mph /  25.7 km/h 74 % 0 in /  0.0 mm
11:12 53.2 °F /  11.8 °C 44.4 °F /  6.9 °C 30.1 in /  1019.2 hPa NNE 12 mph /  19.3 km/h 14 mph /  22.5 km/h 72 % 0 in /  0.0 mm
11:17 52.9 °F /  11.6 °C 44.4 °F /  6.9 °C 30.1 in /  1019.2 hPa NE 12 mph /  19.3 km/h 17 mph /  27.4 km/h 73 % 0 in /  0.0 mm
11:22 53.4 °F /  11.9 °C 43.9 °F /  6.6 °C 30.1 in /  1019.2 hPa ENE 8 mph /  12.9 km/h 17 mph /  27.4 km/h 70 % 0 in /  0.0 mm
11:27 52.9 °F /  11.6 °C 44.4 °F /  6.9 °C 30.1 in /  1019.2 hPa ENE 7 mph /  11.3 km/h 17 mph /  27.4 km/h 73 % 0 in /  0.0 mm
11:32 52.5 °F /  11.4 °C 43.7 °F /  6.5 °C 30.1 in /  1019.2 hPa ENE 4 mph /  6.4 km/h 17 mph /  27.4 km/h 72 % 0 in /  0.0 mm
11:37 52.9 °F /  11.6 °C 44.4 °F /  6.9 °C 30.1 in /  1019.2 hPa NE 6 mph /  9.7 km/h 17 mph /  27.4 km/h 73 % 0 in /  0.0 mm
11:42 53.4 °F /  11.9 °C 44.2 °F /  6.8 °C 30.1 in /  1019.2 hPa ENE 15 mph /  24.1 km/h 17 mph /  27.4 km/h 71 % 0 in /  0.0 mm
11:47 53.8 °F /  12.1 °C 45 °F /  7.2 °C 30.1 in /  1019.2 hPa NE 11 mph /  17.7 km/h 19 mph /  30.6 km/h 72 % 0 in /  0.0 mm
11:52 53.8 °F /  12.1 °C 44.2 °F /  6.8 °C 30.1 in /  1019.2 hPa NE 4 mph /  6.4 km/h 19 mph /  30.6 km/h 70 % 0 in /  0.0 mm
11:57 54.3 °F /  12.4 °C 45.5 °F /  7.5 °C 30.1 in /  1018.8 hPa ENE 6 mph /  9.7 km/h 18 mph /  29.0 km/h 72 % 0 in /  0.0 mm
12:02 54.5 °F /  12.5 °C 44.6 °F /  7.0 °C 30.1 in /  1018.8 hPa East 9 mph /  14.5 km/h 18 mph /  29.0 km/h 69 % 0 in /  0.0 mm
12:12 53.6 °F /  12.0 °C 43.3 °F /  6.3 °C 30.1 in /  1018.8 hPa NE 12 mph /  19.3 km/h 19 mph /  30.6 km/h 68 % 0 in /  0.0 mm
12:17 53.8 °F /  12.1 °C 43.2 °F /  6.2 °C 30.1 in /  1018.8 hPa NNE 11 mph /  17.7 km/h 19 mph /  30.6 km/h 67 % 0 in /  0.0 mm
12:22 54.1 °F /  12.3 °C 43.9 °F /  6.6 °C 30.1 in /  1018.8 hPa ENE 11 mph /  17.7 km/h 19 mph /  30.6 km/h 68 % 0 in /  0.0 mm
12:32 54.9 °F /  12.7 °C 44.1 °F /  6.7 °C 30.1 in /  1018.8 hPa NE 8 mph /  12.9 km/h 15 mph /  24.1 km/h 67 % 0 in /  0.0 mm
12:37 55.2 °F /  12.9 °C 44.1 °F /  6.7 °C 30.1 in /  1018.8 hPa NE 12 mph /  19.3 km/h 16 mph /  25.7 km/h 66 % 0 in /  0.0 mm
12:42 54.7 °F /  12.6 °C 43.2 °F /  6.2 °C 30.1 in /  1018.8 hPa NNE 7 mph /  11.3 km/h 16 mph /  25.7 km/h 65 % 0 in /  0.0 mm
12:47 54.1 °F /  12.3 °C 43.3 °F /  6.3 °C 30.1 in /  1018.5 hPa ENE 10 mph /  16.1 km/h 18 mph /  29.0 km/h 67 % 0 in /  0.0 mm
12:52 54.9 °F /  12.7 °C 43 °F /  6.1 °C 30.1 in /  1018.5 hPa East 9 mph /  14.5 km/h 18 mph /  29.0 km/h 64 % 0 in /  0.0 mm
12:57 55.8 °F /  13.2 °C 43.7 °F /  6.5 °C 30.1 in /  1018.5 hPa East 12 mph /  19.3 km/h 15 mph /  24.1 km/h 64 % 0 in /  0.0 mm
13:02 55.2 °F /  12.9 °C 43.3 °F /  6.3 °C 30.1 in /  1018.5 hPa NE 13 mph /  20.9 km/h 15 mph /  24.1 km/h 64 % 0 in /  0.0 mm
13:07 55.6 °F /  13.1 °C 43.5 °F /  6.4 °C 30.1 in /  1018.5 hPa ENE 5 mph /  8.0 km/h 17 mph /  27.4 km/h 64 % 0 in /  0.0 mm
13:12 55.9 °F /  13.3 °C 44.4 °F /  6.9 °C 30.1 in /  1018.5 hPa NE 12 mph /  19.3 km/h 17 mph /  27.4 km/h 65 % 0 in /  0.0 mm
13:17 56.3 °F /  13.5 °C 43.5 °F /  6.4 °C 30.1 in /  1018.5 hPa NNE 9 mph /  14.5 km/h 17 mph /  27.4 km/h 62 % 0 in /  0.0 mm
13:22 55.6 °F /  13.1 °C 42.8 °F /  6.0 °C 30.1 in /  1018.2 hPa NE 6 mph /  9.7 km/h 16 mph /  25.7 km/h 62 % 0 in /  0.0 mm
13:27 55.8 °F /  13.2 °C 42.1 °F /  5.6 °C 30.1 in /  1018.2 hPa ENE 8 mph /  12.9 km/h 16 mph /  25.7 km/h 60 % 0 in /  0.0 mm
13:32 56.1 °F /  13.4 °C 42.8 °F /  6.0 °C 30.1 in /  1018.2 hPa East 11 mph /  17.7 km/h 16 mph /  25.7 km/h 61 % 0 in /  0.0 mm
13:37 56.1 °F /  13.4 °C 43.7 °F /  6.5 °C 30.1 in /  1017.8 hPa NE 10 mph /  16.1 km/h 15 mph /  24.1 km/h 63 % 0 in /  0.0 mm
13:42 57 °F /  13.9 °C 44.1 °F /  6.7 °C 30.1 in /  1018.2 hPa ENE 7 mph /  11.3 km/h 15 mph /  24.1 km/h 62 % 0 in /  0.0 mm
13:47 57.2 °F /  14.0 °C 43.5 °F /  6.4 °C 30.1 in /  1017.8 hPa ENE 3 mph /  4.8 km/h 15 mph /  24.1 km/h 60 % 0 in /  0.0 mm
13:52 57.7 °F /  14.3 °C 43.5 °F /  6.4 °C 30.1 in /  1017.8 hPa East 4 mph /  6.4 km/h 15 mph /  24.1 km/h 59 % 0 in /  0.0 mm
13:57 58.3 °F /  14.6 °C 45 °F /  7.2 °C 30.1 in /  1017.8 hPa NNE 7 mph /  11.3 km/h 15 mph /  24.1 km/h 61 % 0 in /  0.0 mm
14:02 57.7 °F /  14.3 °C 43.9 °F /  6.6 °C 30.1 in /  1017.8 hPa NE 11 mph /  17.7 km/h 17 mph /  27.4 km/h 60 % 0 in /  0.0 mm
14:07 57.6 °F /  14.2 °C 43 °F /  6.1 °C 30.1 in /  1017.8 hPa ENE 8 mph /  12.9 km/h 17 mph /  27.4 km/h 58 % 0 in /  0.0 mm
14:12 57.7 °F /  14.3 °C 42.6 °F /  5.9 °C 30.1 in /  1017.8 hPa NE 7 mph /  11.3 km/h 15 mph /  24.1 km/h 57 % 0 in /  0.0 mm
14:17 58.5 °F /  14.7 °C 43.3 °F /  6.3 °C 30.1 in /  1017.5 hPa ENE 6 mph /  9.7 km/h 14 mph /  22.5 km/h 57 % 0 in /  0.0 mm
14:22 58.6 °F /  14.8 °C 43.9 °F /  6.6 °C 30.1 in /  1017.5 hPa ENE 8 mph /  12.9 km/h 14 mph /  22.5 km/h 58 % 0 in /  0.0 mm
14:27 58.3 °F /  14.6 °C 44.1 °F /  6.7 °C 30.1 in /  1017.5 hPa NE 11 mph /  17.7 km/h 14 mph /  22.5 km/h 59 % 0 in /  0.0 mm
14:32 58.5 °F /  14.7 °C 44.2 °F /  6.8 °C 30.1 in /  1017.5 hPa East 7 mph /  11.3 km/h 15 mph /  24.1 km/h 59 % 0 in /  0.0 mm
14:37 58.8 °F /  14.9 °C 42.6 °F /  5.9 °C 30 in /  1017.2 hPa ENE 6 mph /  9.7 km/h 15 mph /  24.1 km/h 55 % 0 in /  0.0 mm
14:42 58.6 °F /  14.8 °C 43 °F /  6.1 °C 30 in /  1017.2 hPa ENE 11 mph /  17.7 km/h 15 mph /  24.1 km/h 56 % 0 in /  0.0 mm
14:47 58.1 °F /  14.5 °C 43.9 °F /  6.6 °C 30 in /  1017.2 hPa North 6 mph /  9.7 km/h 14 mph /  22.5 km/h 59 % 0 in /  0.0 mm
14:52 58.3 °F /  14.6 °C 44.4 °F /  6.9 °C 30 in /  1017.2 hPa East 8 mph /  12.9 km/h 14 mph /  22.5 km/h 60 % 0 in /  0.0 mm
14:57 58.1 °F /  14.5 °C 43.3 °F /  6.3 °C 30 in /  1017.2 hPa NNE 5 mph /  8.0 km/h 14 mph /  22.5 km/h 58 % 0 in /  0.0 mm
15:02 58.3 °F /  14.6 °C 42.6 °F /  5.9 °C 30 in /  1017.2 hPa NNE 5 mph /  8.0 km/h 14 mph /  22.5 km/h 56 % 0 in /  0.0 mm
15:12 59.2 °F /  15.1 °C 44.8 °F /  7.1 °C 30 in /  1016.8 hPa North 8 mph /  12.9 km/h 17 mph /  27.4 km/h 59 % 0 in /  0.0 mm
15:17 58.8 °F /  14.9 °C 45 °F /  7.2 °C 30 in /  1016.8 hPa NNE 14 mph /  22.5 km/h 17 mph /  27.4 km/h 60 % 0 in /  0.0 mm
15:22 58.6 °F /  14.8 °C 45.3 °F /  7.4 °C 30 in /  1016.8 hPa NE 4 mph /  6.4 km/h 17 mph /  27.4 km/h 61 % 0 in /  0.0 mm
15:27 59 °F /  15.0 °C 43.3 °F /  6.3 °C 30 in /  1016.5 hPa NNW 6 mph /  9.7 km/h 17 mph /  27.4 km/h 56 % 0 in /  0.0 mm
15:32 58.8 °F /  14.9 °C 43.2 °F /  6.2 °C 30 in /  1016.5 hPa ENE 5 mph /  8.0 km/h 16 mph /  25.7 km/h 56 % 0 in /  0.0 mm
15:42 59.4 °F /  15.2 °C 44.1 °F /  6.7 °C 30 in /  1016.1 hPa NE 6 mph /  9.7 km/h 18 mph /  29.0 km/h 57 % 0 in /  0.0 mm
15:47 58.8 °F /  14.9 °C 43.2 °F /  6.2 °C 30 in /  1016.1 hPa NNE 11 mph /  17.7 km/h 18 mph /  29.0 km/h 56 % 0 in /  0.0 mm
15:52 58.8 °F /  14.9 °C 44.6 °F /  7.0 °C 30 in /  1016.1 hPa ENE 5 mph /  8.0 km/h 18 mph /  29.0 km/h 59 % 0 in /  0.0 mm
15:57 59.4 °F /  15.2 °C 44.1 °F /  6.7 °C 30 in /  1016.1 hPa NNE 11 mph /  17.7 km/h 16 mph /  25.7 km/h 57 % 0 in /  0.0 mm
16:02 59.7 °F /  15.4 °C 45.3 °F /  7.4 °C 30 in /  1016.1 hPa NE 5 mph /  8.0 km/h 17 mph /  27.4 km/h 59 % 0 in /  0.0 mm
16:07 60.1 °F /  15.6 °C 44.8 °F /  7.1 °C 30 in /  1015.8 hPa ENE 3 mph /  4.8 km/h 17 mph /  27.4 km/h 57 % 0 in /  0.0 mm
16:12 59.9 °F /  15.5 °C 43.2 °F /  6.2 °C 30 in /  1015.8 hPa NE 9 mph /  14.5 km/h 17 mph /  27.4 km/h 54 % 0 in /  0.0 mm
16:17 59.5 °F /  15.3 °C 44.8 °F /  7.1 °C 30 in /  1015.8 hPa NE 10 mph /  16.1 km/h 18 mph /  29.0 km/h 58 % 0 in /  0.0 mm
16:22 59.7 °F /  15.4 °C 45 °F /  7.2 °C 30 in /  1015.8 hPa NE 8 mph /  12.9 km/h 18 mph /  29.0 km/h 58 % 0 in /  0.0 mm
16:27 59.4 °F /  15.2 °C 43.2 °F /  6.2 °C 30 in /  1015.8 hPa ENE 4 mph /  6.4 km/h 18 mph /  29.0 km/h 55 % 0 in /  0.0 mm
16:32 59.5 °F /  15.3 °C 43.9 °F /  6.6 °C 30 in /  1015.5 hPa NNE 7 mph /  11.3 km/h 17 mph /  27.4 km/h 56 % 0 in /  0.0 mm
16:37 60.1 °F /  15.6 °C 44.8 °F /  7.1 °C 30 in /  1015.5 hPa NE 8 mph /  12.9 km/h 14 mph /  22.5 km/h 57 % 0 in /  0.0 mm
16:42 60.3 °F /  15.7 °C 45 °F /  7.2 °C 30 in /  1015.5 hPa ENE 9 mph /  14.5 km/h 14 mph /  22.5 km/h 57 % 0 in /  0.0 mm
16:47 60.1 °F /  15.6 °C 43.3 °F /  6.3 °C 30 in /  1015.5 hPa NE 4 mph /  6.4 km/h 16 mph /  25.7 km/h 54 % 0 in /  0.0 mm
16:52 60.1 °F /  15.6 °C 44.4 °F /  6.9 °C 30 in /  1015.5 hPa NE 9 mph /  14.5 km/h 16 mph /  25.7 km/h 56 % 0 in /  0.0 mm
16:57 60.1 °F /  15.6 °C 44.8 °F /  7.1 °C 30 in /  1015.1 hPa WNW 6 mph /  9.7 km/h 16 mph /  25.7 km/h 57 % 0 in /  0.0 mm
17:02 60.1 °F /  15.6 °C 44.4 °F /  6.9 °C 30 in /  1015.1 hPa ENE 10 mph /  16.1 km/h 16 mph /  25.7 km/h 56 % 0 in /  0.0 mm
17:12 60.3 °F /  15.7 °C 45 °F /  7.2 °C 30 in /  1015.1 hPa NE 10 mph /  16.1 km/h 19 mph /  30.6 km/h 57 % 0 in /  0.0 mm
17:22 60.1 °F /  15.6 °C 43.3 °F /  6.3 °C 30 in /  1014.8 hPa NNE 10 mph /  16.1 km/h 19 mph /  30.6 km/h 54 % 0 in /  0.0 mm
17:27 59.9 °F /  15.5 °C 43.7 °F /  6.5 °C 30 in /  1014.8 hPa NNW 7 mph /  11.3 km/h 16 mph /  25.7 km/h 55 % 0 in /  0.0 mm
17:32 60.1 °F /  15.6 °C 44.4 °F /  6.9 °C 30 in /  1014.8 hPa NE 7 mph /  11.3 km/h 18 mph /  29.0 km/h 56 % 0 in /  0.0 mm
17:42 60.6 °F /  15.9 °C 45.3 °F /  7.4 °C 30 in /  1014.4 hPa NNE 14 mph /  22.5 km/h 18 mph /  29.0 km/h 57 % 0 in /  0.0 mm
17:47 60.4 °F /  15.8 °C 44.2 °F /  6.8 °C 30 in /  1014.8 hPa NE 6 mph /  9.7 km/h 18 mph /  29.0 km/h 55 % 0 in /  0.0 mm
17:52 60.4 °F /  15.8 °C 44.2 °F /  6.8 °C 30 in /  1014.4 hPa ENE 7 mph /  11.3 km/h 18 mph /  29.0 km/h 55 % 0 in /  0.0 mm
17:57 60.6 °F /  15.9 °C 45.7 °F /  7.6 °C 30 in /  1014.4 hPa NE 8 mph /  12.9 km/h 18 mph /  29.0 km/h 58 % 0 in /  0.0 mm
18:02 60.3 °F /  15.7 °C 44.4 °F /  6.9 °C 30 in /  1014.4 hPa NW 6 mph /  9.7 km/h 18 mph /  29.0 km/h 56 % 0 in /  0.0 mm
18:07 59.9 °F /  15.5 °C 44.2 °F /  6.8 °C 30 in /  1014.4 hPa NE 10 mph /  16.1 km/h 18 mph /  29.0 km/h 56 % 0 in /  0.0 mm
18:17 60.4 °F /  15.8 °C 44.2 °F /  6.8 °C 29.9 in /  1014.1 hPa North 9 mph /  14.5 km/h 16 mph /  25.7 km/h 55 % 0 in /  0.0 mm
18:22 60.3 °F /  15.7 °C 44.4 °F /  6.9 °C 29.9 in /  1014.1 hPa NE 9 mph /  14.5 km/h 16 mph /  25.7 km/h 56 % 0 in /  0.0 mm
18:27 60.3 °F /  15.7 °C 44.4 °F /  6.9 °C 29.9 in /  1014.1 hPa NE 10 mph /  16.1 km/h 15 mph /  24.1 km/h 56 % 0 in /  0.0 mm
18:37 59.7 °F /  15.4 °C 44.1 °F /  6.7 °C 29.9 in /  1014.1 hPa NNE 8 mph /  12.9 km/h 17 mph /  27.4 km/h 56 % 0 in /  0.0 mm
18:42 59.9 °F /  15.5 °C 44.2 °F /  6.8 °C 29.9 in /  1013.8 hPa NE 8 mph /  12.9 km/h 17 mph /  27.4 km/h 56 % 0 in /  0.0 mm
18:52 59.9 °F /  15.5 °C 43.7 °F /  6.5 °C 29.9 in /  1013.8 hPa NE 6 mph /  9.7 km/h 17 mph /  27.4 km/h 55 % 0 in /  0.0 mm
18:57 59.7 °F /  15.4 °C 44.1 °F /  6.7 °C 29.9 in /  1013.8 hPa NW 4 mph /  6.4 km/h 19 mph /  30.6 km/h 56 % 0 in /  0.0 mm
19:02 59.5 °F /  15.3 °C 44.2 °F /  6.8 °C 29.9 in /  1013.8 hPa NE 9 mph /  14.5 km/h 19 mph /  30.6 km/h 57 % 0 in /  0.0 mm
19:12 59.5 °F /  15.3 °C 44.2 °F /  6.8 °C 29.9 in /  1013.8 hPa NE 7 mph /  11.3 km/h 16 mph /  25.7 km/h 57 % 0 in /  0.0 mm
19:17 59.5 °F /  15.3 °C 43.9 °F /  6.6 °C 29.9 in /  1013.4 hPa NE 11 mph /  17.7 km/h 14 mph /  22.5 km/h 56 % 0 in /  0.0 mm
19:22 59.5 °F /  15.3 °C 44.2 °F /  6.8 °C 29.9 in /  1013.4 hPa NNE 10 mph /  16.1 km/h 14 mph /  22.5 km/h 57 % 0 in /  0.0 mm
19:27 59.4 °F /  15.2 °C 44.1 °F /  6.7 °C 29.9 in /  1013.4 hPa ENE 6 mph /  9.7 km/h 14 mph /  22.5 km/h 57 % 0 in /  0.0 mm
19:32 59 °F /  15.0 °C 43.7 °F /  6.5 °C 29.9 in /  1013.4 hPa NE 11 mph /  17.7 km/h 16 mph /  25.7 km/h 57 % 0 in /  0.0 mm
19:37 59 °F /  15.0 °C 44.2 °F /  6.8 °C 29.9 in /  1013.4 hPa NE 7 mph /  11.3 km/h 16 mph /  25.7 km/h 58 % 0 in /  0.0 mm
19:42 59 °F /  15.0 °C 43.7 °F /  6.5 °C 29.9 in /  1013.4 hPa ENE 10 mph /  16.1 km/h 16 mph /  25.7 km/h 57 % 0 in /  0.0 mm
19:47 58.8 °F /  14.9 °C 43.7 °F /  6.5 °C 29.9 in /  1013.1 hPa ENE 9 mph /  14.5 km/h 14 mph /  22.5 km/h 57 % 0 in /  0.0 mm
19:52 58.6 °F /  14.8 °C 43.9 °F /  6.6 °C 29.9 in /  1013.4 hPa NE 5 mph /  8.0 km/h 14 mph /  22.5 km/h 58 % 0 in /  0.0 mm
19:57 58.5 °F /  14.7 °C 44.2 °F /  6.8 °C 29.9 in /  1013.1 hPa North 10 mph /  16.1 km/h 15 mph /  24.1 km/h 59 % 0 in /  0.0 mm
20:02 58.3 °F /  14.6 °C 43.5 °F /  6.4 °C 29.9 in /  1013.1 hPa ENE 8 mph /  12.9 km/h 16 mph /  25.7 km/h 58 % 0 in /  0.0 mm
20:12 57.9 °F /  14.4 °C 43.2 °F /  6.2 °C 29.9 in /  1013.1 hPa NNE 9 mph /  14.5 km/h 16 mph /  25.7 km/h 58 % 0 in /  0.0 mm
20:17 57.9 °F /  14.4 °C 43.7 °F /  6.5 °C 29.9 in /  1013.1 hPa NNE 8 mph /  12.9 km/h 15 mph /  24.1 km/h 59 % 0 in /  0.0 mm
20:22 57.6 °F /  14.2 °C 43.7 °F /  6.5 °C 29.9 in /  1013.1 hPa NE 5 mph /  8.0 km/h 15 mph /  24.1 km/h 60 % 0 in /  0.0 mm
20:27 57.6 °F /  14.2 °C 43.7 °F /  6.5 °C 29.9 in /  1013.1 hPa NE 8 mph /  12.9 km/h 15 mph /  24.1 km/h 60 % 0 in /  0.0 mm
20:32 57.2 °F /  14.0 °C 43.9 °F /  6.6 °C 29.9 in /  1013.1 hPa NE 6 mph /  9.7 km/h 15 mph /  24.1 km/h 61 % 0 in /  0.0 mm
20:37 57 °F /  13.9 °C 43.7 °F /  6.5 °C 29.9 in /  1013.1 hPa NNW 5 mph /  8.0 km/h 15 mph /  24.1 km/h 61 % 0 in /  0.0 mm
20:42 56.7 °F /  13.7 °C 43.3 °F /  6.3 °C 29.9 in /  1013.1 hPa NE 5 mph /  8.0 km/h 15 mph /  24.1 km/h 61 % 0 in /  0.0 mm
20:47 56.5 °F /  13.6 °C 43.7 °F /  6.5 °C 29.9 in /  1012.8 hPa NNE 5 mph /  8.0 km/h 13 mph /  20.9 km/h 62 % 0 in /  0.0 mm
20:52 56.1 °F /  13.4 °C 43.7 °F /  6.5 °C 29.9 in /  1012.8 hPa NE 9 mph /  14.5 km/h 13 mph /  20.9 km/h 63 % 0 in /  0.0 mm
20:57 55.8 °F /  13.2 °C 43.3 °F /  6.3 °C 29.9 in /  1012.8 hPa NE 6 mph /  9.7 km/h 13 mph /  20.9 km/h 63 % 0 in /  0.0 mm
21:02 55.6 °F /  13.1 °C 43.5 °F /  6.4 °C 29.9 in /  1012.8 hPa NNE 8 mph /  12.9 km/h 12 mph /  19.3 km/h 64 % 0 in /  0.0 mm
21:12 55 °F /  12.8 °C 43.5 °F /  6.4 °C 29.9 in /  1012.8 hPa NE 6 mph /  9.7 km/h 13 mph /  20.9 km/h 65 % 0 in /  0.0 mm
21:17 54.7 °F /  12.6 °C 43.5 °F /  6.4 °C 29.9 in /  1012.8 hPa NNE 4 mph /  6.4 km/h 13 mph /  20.9 km/h 66 % 0 in /  0.0 mm
21:22 54.5 °F /  12.5 °C 43.3 °F /  6.3 °C 29.9 in /  1012.8 hPa NE 6 mph /  9.7 km/h 11 mph /  17.7 km/h 66 % 0 in /  0.0 mm
21:32 54 °F /  12.2 °C 43.3 °F /  6.3 °C 29.9 in /  1012.8 hPa NE 6 mph /  9.7 km/h 9 mph /  14.5 km/h 67 % 0 in /  0.0 mm
21:42 53.8 °F /  12.1 °C 43.2 °F /  6.2 °C 29.9 in /  1013.1 hPa North 5 mph /  8.0 km/h 9 mph /  14.5 km/h 67 % 0 in /  0.0 mm
21:47 53.4 °F /  11.9 °C 42.8 °F /  6.0 °C 29.9 in /  1013.1 hPa ENE 6 mph /  9.7 km/h 10 mph /  16.1 km/h 67 % 0 in /  0.0 mm
21:52 53.4 °F /  11.9 °C 43.2 °F /  6.2 °C 29.9 in /  1012.8 hPa NE 6 mph /  9.7 km/h 10 mph /  16.1 km/h 68 % 0 in /  0.0 mm
21:57 53.2 °F /  11.8 °C 43 °F /  6.1 °C 29.9 in /  1013.1 hPa ENE 6 mph /  9.7 km/h 11 mph /  17.7 km/h 68 % 0 in /  0.0 mm
22:02 53.1 °F /  11.7 °C 43.2 °F /  6.2 °C 29.9 in /  1012.8 hPa NNE 5 mph /  8.0 km/h 11 mph /  17.7 km/h 69 % 0 in /  0.0 mm
22:07 52.9 °F /  11.6 °C 43 °F /  6.1 °C 29.9 in /  1012.8 hPa NE 5 mph /  8.0 km/h 11 mph /  17.7 km/h 69 % 0 in /  0.0 mm
22:12 52.5 °F /  11.4 °C 42.6 °F /  5.9 °C 29.9 in /  1012.8 hPa NE 6 mph /  9.7 km/h 9 mph /  14.5 km/h 69 % 0 in /  0.0 mm
22:17 52.5 °F /  11.4 °C 43 °F /  6.1 °C 29.9 in /  1012.8 hPa NE 7 mph /  11.3 km/h 10 mph /  16.1 km/h 70 % 0 in /  0.0 mm
22:22 52.3 °F /  11.3 °C 42.8 °F /  6.0 °C 29.9 in /  1012.8 hPa NE 4 mph /  6.4 km/h 10 mph /  16.1 km/h 70 % 0 in /  0.0 mm
22:27 52.2 °F /  11.2 °C 42.6 °F /  5.9 °C 29.9 in /  1013.1 hPa ENE 4 mph /  6.4 km/h 11 mph /  17.7 km/h 70 % 0 in /  0.0 mm
22:32 52.2 °F /  11.2 °C 42.6 °F /  5.9 °C 29.9 in /  1012.8 hPa North 2 mph /  3.2 km/h 11 mph /  17.7 km/h 70 % 0 in /  0.0 mm
22:42 52 °F /  11.1 °C 42.8 °F /  6.0 °C 29.9 in /  1012.8 hPa NE 6 mph /  9.7 km/h 10 mph /  16.1 km/h 71 % 0 in /  0.0 mm
22:47 51.6 °F /  10.9 °C 42.4 °F /  5.8 °C 29.9 in /  1012.8 hPa NE 6 mph /  9.7 km/h 10 mph /  16.1 km/h 71 % 0 in /  0.0 mm
22:52 51.4 °F /  10.8 °C 42.8 °F /  6.0 °C 29.9 in /  1012.8 hPa NE 6 mph /  9.7 km/h 10 mph /  16.1 km/h 72 % 0 in /  0.0 mm
22:57 51.3 °F /  10.7 °C 42.6 °F /  5.9 °C 29.9 in /  1012.8 hPa NE 6 mph /  9.7 km/h 10 mph /  16.1 km/h 72 % 0 in /  0.0 mm
23:02 51.1 °F /  10.6 °C 42.8 °F /  6.0 °C 29.9 in /  1012.8 hPa NE 5 mph /  8.0 km/h 9 mph /  14.5 km/h 73 % 0 in /  0.0 mm
23:12 50.7 °F /  10.4 °C 42.8 °F /  6.0 °C 29.9 in /  1012.8 hPa NNE 4 mph /  6.4 km/h 11 mph /  17.7 km/h 74 % 0 in /  0.0 mm
23:17 50.5 °F /  10.3 °C 42.6 °F /  5.9 °C 29.9 in /  1012.4 hPa ENE 6 mph /  9.7 km/h 11 mph /  17.7 km/h 74 % 0 in /  0.0 mm
23:22 50.5 °F /  10.3 °C 42.6 °F /  5.9 °C 29.9 in /  1012.4 hPa NE 7 mph /  11.3 km/h 11 mph /  17.7 km/h 74 % 0 in /  0.0 mm
23:27 50.4 °F /  10.2 °C 42.4 °F /  5.8 °C 29.9 in /  1012.4 hPa North 3 mph /  4.8 km/h 11 mph /  17.7 km/h 74 % 0 in /  0.0 mm
23:32 50.2 °F /  10.1 °C 42.3 °F /  5.7 °C 29.9 in /  1012.4 hPa ENE 4 mph /  6.4 km/h 10 mph /  16.1 km/h 74 % 0 in /  0.0 mm
23:42 49.8 °F /  9.9 °C 42.3 °F /  5.7 °C 29.9 in /  1012.4 hPa NNE 7 mph /  11.3 km/h 9 mph /  14.5 km/h 75 % 0 in /  0.0 mm
23:47 49.6 °F /  9.8 °C 42.1 °F /  5.6 °C 29.9 in /  1012.1 hPa ENE 6 mph /  9.7 km/h 9 mph /  14.5 km/h 75 % 0 in /  0.0 mm
23:52 49.6 °F /  9.8 °C 42.1 °F /  5.6 °C 29.9 in /  1012.1 hPa NE 3 mph /  4.8 km/h 10 mph /  16.1 km/h 75 % 0 in /  0.0 mm
23:57 49.3 °F /  9.6 °C 42.1 °F /  5.6 °C 29.9 in /  1012.1 hPa NE 4 mph /  6.4 km/h 10 mph /  16.1 km/h 76 % 0 in /  0.0 mm
Meteo18
Compliments of Weather Underground - 4 mb

Script developed by  Jim McMurry - jmcmurry@mwt.net Adapted for the template by  Wim van der Kuil - Leuven-Template.eu

You find our weather info also at:

European Weather Network

Weather Underground

Equipment we use:

Weather-station
Davis Vue

Weather-program
Meteohub

Weather-server
Raspberry PI 2 B+

Provider
1 and 1

Davis Vue

Meteohub

Raspberry PI 2 B+

1 and 1